Time;durP1;ratioP1;P1;durP2;ratioP2;P2;SDS_P1;SDS_P2;PMS_P1;PMS_P2;Temp;Humidity;BMP_temperature;BMP_pressure;BME280_temperature;BME280_humidity;BME280_pressure;Samples;Min_cycle;Max_cycle;Signal;HPM_P1;HPM_P2
2021/01/21 00:00:23;;;;;;;2.38;0.20;;;9.90;99.90;;;;;;4968523;28;20038;-91
2021/01/21 00:02:48;;;;;;;0.90;0.20;;;9.80;99.90;;;;;;4968566;28;20024;-91
2021/01/21 00:05:14;;;;;;;1.60;0.20;;;9.70;99.90;;;;;;4968609;28;20081;-92
2021/01/21 00:07:40;;;;;;;1.38;0.20;;;9.70;99.90;;;;;;4968696;29;20035;-92
2021/01/21 00:10:06;;;;;;;3.30;0.38;;;9.80;99.90;;;;;;4968410;28;20106;-92
2021/01/21 00:12:32;;;;;;;0.95;0.20;;;9.80;99.90;;;;;;4968268;28;20063;-92
2021/01/21 00:14:58;;;;;;;1.20;0.10;;;9.70;99.90;;;;;;4968304;29;20031;-92
2021/01/21 00:17:23;;;;;;;1.20;0.20;;;9.70;99.90;;;;;;4952385;29;20035;-91
2021/01/21 00:19:49;;;;;;;2.60;0.20;;;9.70;99.90;;;;;;4968540;29;20037;-91
2021/01/21 00:22:14;;;;;;;1.35;0.50;;;9.80;99.90;;;;;;4968090;29;20061;-92
2021/01/21 00:24:40;;;;;;;1.90;0.20;;;9.60;99.90;;;;;;4969888;28;20047;-91
2021/01/21 00:27:05;;;;;;;2.63;0.20;;;9.70;99.90;;;;;;4970262;29;20027;-91
2021/01/21 00:29:31;;;;;;;2.65;1.25;;;9.70;99.90;;;;;;4969636;29;20027;-90
2021/01/21 00:31:58;;;;;;;1.50;0.20;;;9.70;99.90;;;;;;4984250;28;20035;-91
2021/01/21 00:34:24;;;;;;;2.05;0.30;;;10.00;99.90;;;;;;4984437;28;20027;-90
2021/01/21 00:36:50;;;;;;;1.83;0.20;;;9.90;99.90;;;;;;4984305;28;20027;-91
2021/01/21 00:39:16;;;;;;;1.10;0.20;;;9.70;99.90;;;;;;4983808;28;20045;-91
2021/01/21 00:42:02;;;;;;;2.95;0.20;;;9.70;99.90;;;;;;4983701;28;20042;-90
2021/01/21 00:44:27;;;;;;;1.00;0.20;;;9.70;99.90;;;;;;4912546;29;20044;-91
2021/01/21 00:46:53;;;;;;;1.20;0.20;;;9.80;99.90;;;;;;4912711;29;20072;-91
2021/01/21 00:49:18;;;;;;;2.20;0.20;;;9.70;99.90;;;;;;4928584;29;20136;-92
2021/01/21 00:51:44;;;;;;;1.55;0.20;;;9.80;99.90;;;;;;4928207;29;20086;-90
2021/01/21 00:54:09;;;;;;;2.83;0.28;;;9.70;99.90;;;;;;4917689;29;20349;-89
2021/01/21 00:56:37;;;;;;;1.50;0.20;;;9.80;99.90;;;;;;4931479;29;20122;-89
2021/01/21 00:59:03;;;;;;;1.95;0.30;;;9.90;99.90;;;;;;4931398;29;20063;-90
2021/01/21 01:01:28;;;;;;;3.50;0.30;;;9.80;99.90;;;;;;4915537;29;20188;-90
2021/01/21 01:03:56;;;;;;;1.10;0.17;;;9.90;99.90;;;;;;4931502;29;20067;-91
2021/01/21 01:06:21;;;;;;;2.97;0.20;;;9.80;99.90;;;;;;4915435;29;20035;-92
2021/01/21 01:08:48;;;;;;;1.00;0.20;;;9.80;99.90;;;;;;4931296;29;20047;-91
2021/01/21 01:11:14;;;;;;;1.58;0.20;;;9.70;99.90;;;;;;4930919;29;20032;-90
2021/01/21 01:13:39;;;;;;;1.38;0.20;;;9.90;99.90;;;;;;4931151;29;20036;-93
2021/01/21 01:16:10;;;;;;;2.33;0.20;;;9.80;99.90;;;;;;4931628;29;20031;-91
2021/01/21 01:18:45;;;;;;;1.73;0.10;;;9.90;99.90;;;;;;4916624;29;20063;-91
2021/01/21 01:21:10;;;;;;;3.83;0.20;;;9.90;99.90;;;;;;4941864;28;20044;-91
2021/01/21 01:23:36;;;;;;;2.67;0.30;;;9.90;99.90;;;;;;4983053;28;20039;-95
2021/01/21 01:26:02;;;;;;;1.88;0.20;;;9.90;99.90;;;;;;4967118;29;20054;-93
2021/01/21 01:28:28;;;;;;;1.02;0.25;;;9.90;99.90;;;;;;4983075;28;20039;-93
2021/01/21 01:30:54;;;;;;;1.75;0.20;;;9.90;99.90;;;;;;4983213;28;20117;-91
2021/01/21 01:33:21;;;;;;;1.33;0.20;;;10.00;99.90;;;;;;4986275;28;20030;-91
2021/01/21 01:35:47;;;;;;;1.30;0.20;;;10.00;99.90;;;;;;4986306;28;20390;-91
2021/01/21 01:38:13;;;;;;;0.93;0.20;;;10.00;99.90;;;;;;5002505;28;20030;-93
2021/01/21 01:40:40;;;;;;;1.30;0.30;;;9.90;99.90;;;;;;4986012;28;20483;-91
2021/01/21 01:43:06;;;;;;;1.98;0.20;;;9.80;99.90;;;;;;4986082;28;20073;-90
2021/01/21 01:45:32;;;;;;;0.75;0.30;;;9.80;99.90;;;;;;4986640;28;20046;-91
2021/01/21 01:48:03;;;;;;;1.60;0.10;;;10.00;99.90;;;;;;4986417;28;20027;-91
2021/01/21 01:50:37;;;;;;;2.53;0.30;;;9.90;99.90;;;;;;5001862;28;20031;-91
2021/01/21 01:53:04;;;;;;;1.77;0.20;;;9.90;99.90;;;;;;4982773;28;20035;-90
2021/01/21 01:55:30;;;;;;;1.45;0.20;;;10.00;99.90;;;;;;4982902;28;20047;-92
2021/01/21 01:58:09;;;;;;;2.03;0.20;;;10.00;99.90;;;;;;4966579;29;20042;-91
2021/01/21 02:00:44;;;;;;;1.80;0.20;;;10.00;99.90;;;;;;4982903;28;20095;-91
2021/01/21 02:03:11;;;;;;;1.95;0.20;;;10.20;99.90;;;;;;4982796;28;20042;-91
2021/01/21 02:05:44;;;;;;;1.65;0.20;;;10.20;99.90;;;;;;4983088;28;20038;-91
2021/01/21 02:08:09;;;;;;;2.65;0.20;;;10.20;99.90;;;;;;4982861;28;20122;-92
2021/01/21 02:10:35;;;;;;;1.00;0.20;;;10.30;99.90;;;;;;4982777;28;20028;-91
2021/01/21 02:13:29;;;;;;;1.95;0.20;;;10.30;99.90;;;;;;4982470;28;20028;-92
2021/01/21 02:16:30;;;;;;;3.60;0.20;;;10.40;99.90;;;;;;4966534;28;20036;-90
2021/01/21 02:19:17;;;;;;;1.25;0.20;;;10.50;99.90;;;;;;4966599;28;20027;-90
2021/01/21 02:22:17;;;;;;;1.70;0.20;;;10.40;99.90;;;;;;4966468;29;20099;-91
2021/01/21 02:25:09;;;;;;;0.88;0.20;;;10.50;99.90;;;;;;4966438;29;20043;-90
2021/01/21 02:28:13;;;;;;;3.30;0.30;;;10.40;99.90;;;;;;4966998;28;20122;-93
2021/01/21 02:31:01;;;;;;;1.10;0.20;;;10.30;99.90;;;;;;4980980;28;20483;-93
2021/01/21 02:33:56;;;;;;;1.48;0.30;;;10.10;99.90;;;;;;4985926;28;20097;-92
2021/01/21 02:36:30;;;;;;;2.63;0.20;;;10.00;99.90;;;;;;4985875;28;20066;-91
2021/01/21 02:39:01;;;;;;;0.95;0.13;;;9.90;99.90;;;;;;4985708;28;20038;-92
2021/01/21 02:41:27;;;;;;;;;;;10.00;99.90;;;;;;4985890;28;20030;-94
2021/01/21 02:43:53;;;;;;;1.75;0.20;;;9.90;99.90;;;;;;4961519;23;19950;-92
2021/01/21 02:46:22;;;;;;;0.80;0.20;;;10.00;99.90;;;;;;4947939;29;20028;-93
2021/01/21 02:48:53;;;;;;;2.33;0.30;;;10.00;99.90;;;;;;4947325;29;20062;-92
2021/01/21 02:51:32;;;;;;;1.83;0.10;;;10.00;99.90;;;;;;4948062;29;20027;-93
2021/01/21 02:54:20;;;;;;;3.25;0.20;;;10.10;99.90;;;;;;4947448;29;20051;-91
2021/01/21 02:56:46;;;;;;;1.60;0.20;;;10.20;99.90;;;;;;4963313;29;20034;-91
2021/01/21 02:59:17;;;;;;;1.67;0.20;;;10.30;99.90;;;;;;4963397;29;20036;-94
2021/01/21 03:01:48;;;;;;;1.13;0.20;;;10.30;99.90;;;;;;4948631;29;20232;-91
2021/01/21 03:04:15;;;;;;;1.15;0.20;;;10.30;99.90;;;;;;4950911;29;20115;-91
2021/01/21 03:06:43;;;;;;;1.50;0.10;;;10.30;99.90;;;;;;4966816;29;20032;-94
2021/01/21 03:09:24;;;;;;;1.40;0.20;;;10.20;99.90;;;;;;4952692;29;20035;-92
2021/01/21 03:11:50;;;;;;;1.88;0.32;;;10.20;99.90;;;;;;4950357;29;20059;-91
2021/01/21 03:14:15;;;;;;;3.10;0.20;;;10.30;99.90;;;;;;4950432;29;20046;-91
2021/01/21 03:16:44;;;;;;;1.42;0.15;;;10.40;99.90;;;;;;4950373;29;20036;-94
2021/01/21 03:19:11;;;;;;;1.92;0.20;;;10.50;99.90;;;;;;4951289;29;20032;-92
2021/01/21 03:21:37;;;;;;;0.80;0.20;;;10.30;99.90;;;;;;4958853;23;20047;-94
2021/01/21 03:24:11;;;;;;;0.80;0.20;;;10.40;99.90;;;;;;4995462;23;20058;-92
2021/01/21 03:26:54;;;;;;;0.77;0.13;;;10.40;99.90;;;;;;4972553;28;20035;-92
2021/01/21 03:29:20;;;;;;;2.40;0.20;;;10.40;99.90;;;;;;4972286;28;20037;-91
2021/01/21 03:31:48;;;;;;;4.30;0.22;;;10.30;99.90;;;;;;4972491;28;20082;-92
2021/01/21 03:34:15;;;;;;;0.93;0.20;;;10.40;99.90;;;;;;4972471;28;20034;-92
2021/01/21 03:36:49;;;;;;;1.75;0.25;;;10.50;99.90;;;;;;4972248;28;20031;-92
2021/01/21 03:39:14;;;;;;;1.15;0.28;;;10.50;99.90;;;;;;4972201;28;20050;-93
2021/01/21 03:41:58;;;;;;;0.50;0.10;;;10.60;99.90;;;;;;4974878;28;20045;-91
2021/01/21 03:44:40;;;;;;;1.08;0.20;;;10.60;99.90;;;;;;4972296;28;20047;-94
2021/01/21 03:47:06;;;;;;;1.98;0.20;;;10.70;99.90;;;;;;4972182;28;20054;-92
2021/01/21 03:49:45;;;;;;;2.00;0.20;;;10.80;99.90;;;;;;4972072;28;20077;-90
2021/01/21 03:52:14;;;;;;;0.52;0.10;;;10.90;99.90;;;;;;4964231;29;20027;-92
2021/01/21 03:54:51;;;;;;;1.83;0.20;;;10.90;99.90;;;;;;4952795;29;20038;-91
2021/01/21 03:57:19;;;;;;;1.35;0.10;;;11.10;99.90;;;;;;4952939;29;20113;-92
2021/01/21 03:59:47;;;;;;;1.92;0.20;;;11.10;99.90;;;;;;4952362;29;20095;-92
2021/01/21 04:02:12;;;;;;;1.23;0.20;;;11.00;99.90;;;;;;4952629;29;20055;-91
2021/01/21 04:04:56;;;;;;;1.90;0.30;;;10.80;99.90;;;;;;4952722;29;20054;-91
2021/01/21 04:07:22;;;;;;;1.25;0.10;;;10.70;99.90;;;;;;4952748;29;20031;-93
2021/01/21 04:09:47;;;;;;;1.08;0.20;;;10.70;99.90;;;;;;4952638;29;20039;-93
2021/01/21 04:12:36;;;;;;;2.25;0.10;;;10.60;99.90;;;;;;4955476;28;20039;-92
2021/01/21 04:15:03;;;;;;;1.75;0.10;;;10.80;99.90;;;;;;4952355;29;20035;-92
2021/01/21 04:17:29;;;;;;;0.30;0.10;;;10.90;99.90;;;;;;4952772;29;20383;-92
2021/01/21 04:19:55;;;;;;;1.45;0.20;;;10.80;99.90;;;;;;4952472;29;20054;-92
2021/01/21 04:22:21;;;;;;;0.75;0.10;;;10.60;99.90;;;;;;4952558;29;20476;-93
2021/01/21 04:24:47;;;;;;;1.33;0.25;;;10.50;99.90;;;;;;4968715;29;20039;-95
2021/01/21 04:27:23;;;;;;;2.22;0.20;;;10.30;99.90;;;;;;4968684;29;20031;-94
2021/01/21 04:29:50;;;;;;;1.83;0.30;;;10.30;99.90;;;;;;4968039;29;20031;-91
2021/01/21 04:32:18;;;;;;;1.67;0.20;;;10.20;99.90;;;;;;4968137;29;20027;-92
2021/01/21 04:34:44;;;;;;;0.93;0.32;;;10.40;99.90;;;;;;4968108;29;20061;-93
2021/01/21 04:37:11;;;;;;;0.70;0.10;;;10.50;99.90;;;;;;4968121;29;20027;-93
2021/01/21 04:39:55;;;;;;;2.03;0.10;;;10.30;99.90;;;;;;4954547;29;20050;-89
2021/01/21 04:42:25;;;;;;;0.75;0.00;;;6.30;99.90;;;;;;4969895;28;20094;-90
2021/01/21 04:44:51;;;;;;;1.15;0.00;;;6.10;99.90;;;;;;4958073;28;20070;-90
2021/01/21 04:47:26;;;;;;;1.65;0.00;;;6.10;99.90;;;;;;4986108;28;20172;-90
2021/01/21 04:50:19;;;;;;;4.00;0.10;;;6.20;99.90;;;;;;4983531;28;20041;-89
2021/01/21 04:53:11;;;;;;;2.13;0.00;;;6.30;99.90;;;;;;4971296;28;20085;-92
2021/01/21 04:55:55;;;;;;;1.17;0.00;;;6.40;99.90;;;;;;4972390;28;20034;-89
2021/01/21 04:58:49;;;;;;;2.42;0.10;;;6.60;99.90;;;;;;4973555;28;20041;-90
2021/01/21 05:01:19;;;;;;;1.77;0.10;;;6.60;99.90;;;;;;4954412;28;20119;-89
2021/01/21 05:03:45;;;;;;;1.55;0.00;;;6.60;99.90;;;;;;4952479;28;20042;-89
2021/01/21 05:06:27;;;;;;;1.02;0.10;;;6.70;99.90;;;;;;4973022;28;20054;-89
2021/01/21 05:09:01;;;;;;;1.45;0.00;;;6.80;99.90;;;;;;4970708;28;20039;-90
2021/01/21 05:11:29;;;;;;;1.83;0.10;;;6.70;99.90;;;;;;4986323;28;20057;-89
2021/01/21 05:14:18;;;;;;;1.60;0.10;;;6.70;99.90;;;;;;4964582;28;20099;-91
2021/01/21 05:17:03;;;;;;;2.70;0.20;;;6.60;99.90;;;;;;4987569;28;20045;-91
2021/01/21 05:19:47;;;;;;;2.47;0.10;;;6.50;99.90;;;;;;4987159;28;20042;-93
2021/01/21 05:22:34;;;;;;;0.75;0.00;;;6.50;99.90;;;;;;4973066;28;20070;-92
2021/01/21 05:25:20;;;;;;;2.67;0.10;;;6.50;99.90;;;;;;4946920;28;20102;-91
2021/01/21 05:28:19;;;;;;;1.00;0.00;;;6.50;99.90;;;;;;4986154;28;20034;-90
2021/01/21 05:30:50;;;;;;;5.60;0.10;;;6.50;99.90;;;;;;4955448;29;20294;-92
2021/01/21 05:33:24;;;;;;;0.95;0.00;;;6.40;99.90;;;;;;4967125;29;20051;-92
2021/01/21 05:36:06;;;;;;;0.73;0.00;;;6.40;99.90;;;;;;4937170;29;20484;-92
2021/01/21 05:38:41;;;;;;;1.27;0.00;;;6.40;99.90;;;;;;4935870;29;20031;-92
2021/01/21 05:42:02;;;;;;;0.95;0.10;;;6.50;99.90;;;;;;4916419;29;20079;-89
2021/01/21 05:44:40;;;;;;;0.77;0.00;;;6.50;99.90;;;;;;4878682;29;20056;-93
2021/01/21 05:47:25;;;;;;;1.60;0.10;;;6.40;99.90;;;;;;4908656;29;20086;-93
2021/01/21 05:49:53;;;;;;;2.80;0.10;;;6.50;99.90;;;;;;4893024;29;20040;-91
2021/01/21 05:52:20;;;;;;;0.80;0.03;;;6.50;99.90;;;;;;4893118;29;20033;-91
2021/01/21 05:54:49;;;;;;;1.45;0.10;;;6.50;99.90;;;;;;4877763;29;20028;-91
2021/01/21 05:57:23;;;;;;;3.83;0.10;;;6.40;99.90;;;;;;4878645;29;20024;-92
2021/01/21 05:59:51;;;;;;;2.53;0.10;;;6.50;99.90;;;;;;4877820;29;20033;-91
2021/01/21 06:02:26;;;;;;;1.45;0.10;;;6.50;99.90;;;;;;4878516;29;20047;-92
2021/01/21 06:05:00;;;;;;;1.63;0.10;;;6.50;99.90;;;;;;4878687;29;20060;-91
2021/01/21 06:07:32;;;;;;;1.77;0.10;;;6.50;99.90;;;;;;4877584;29;20032;-91
2021/01/21 06:09:59;;;;;;;2.03;0.03;;;6.50;99.90;;;;;;4877332;29;20040;-91
2021/01/21 06:12:28;;;;;;;5.45;0.65;;;6.50;99.90;;;;;;4877424;29;20029;-92
2021/01/21 06:15:02;;;;;;;1.60;0.22;;;6.40;99.90;;;;;;4877461;29;20047;-92
2021/01/21 06:17:30;;;;;;;2.80;0.30;;;6.50;99.90;;;;;;4877257;29;20036;-92
2021/01/21 06:20:17;;;;;;;2.92;0.10;;;6.50;99.90;;;;;;4895153;29;20041;-92
2021/01/21 06:22:47;;;;;;;2.20;0.10;;;6.40;99.90;;;;;;4954021;28;20063;-93
2021/01/21 06:25:20;;;;;;;3.08;0.10;;;6.40;99.90;;;;;;4985088;28;20034;-93
2021/01/21 06:27:47;;;;;;;3.50;0.10;;;6.40;99.90;;;;;;4969631;28;20034;-95
2021/01/21 06:30:20;;;;;;;4.53;0.10;;;6.30;99.90;;;;;;4974137;28;20039;-94
2021/01/21 06:33:02;;;;;;;3.55;0.10;;;6.40;99.90;;;;;;4953520;28;20031;-92
2021/01/21 06:35:32;;;;;;;6.35;0.30;;;6.40;99.90;;;;;;4969744;28;20031;-91
2021/01/21 06:38:20;;;;;;;4.25;0.20;;;6.40;99.90;;;;;;4973028;28;20034;-93
2021/01/21 06:40:53;;;;;;;3.42;0.17;;;6.20;99.90;;;;;;4972674;28;20035;-92
2021/01/21 06:43:33;;;;;;;4.50;0.20;;;6.20;99.90;;;;;;4960220;28;20035;-93
2021/01/21 06:46:00;;;;;;;4.93;0.30;;;6.30;99.90;;;;;;4963854;28;20031;-92
2021/01/21 06:48:27;;;;;;;3.40;0.10;;;6.30;99.90;;;;;;4969872;29;20158;-93
2021/01/21 06:50:53;;;;;;;3.35;0.20;;;6.40;99.90;;;;;;4948956;28;20022;-93
2021/01/21 06:53:19;;;;;;;5.47;0.20;;;6.30;99.90;;;;;;4956712;28;20053;-93
2021/01/21 06:55:50;;;;;;;3.15;0.20;;;6.30;99.90;;;;;;4982516;28;20064;-91
2021/01/21 06:58:50;;;;;;;5.78;0.47;;;6.30;99.90;;;;;;4972762;28;20062;-92
2021/01/21 07:01:31;;;;;;;5.93;0.10;;;6.20;99.90;;;;;;4961859;29;20051;-92
2021/01/21 07:04:18;;;;;;;2.92;0.13;;;6.20;99.90;;;;;;4960771;28;20042;-92
2021/01/21 07:06:50;;;;;;;3.92;0.10;;;6.10;99.90;;;;;;4958585;28;20030;-92
2021/01/21 07:09:17;;;;;;;4.32;0.20;;;6.10;99.90;;;;;;4965696;28;20027;-93
2021/01/21 07:11:44;;;;;;;4.40;0.20;;;6.10;99.90;;;;;;4971540;28;20061;-91
2021/01/21 07:14:25;;;;;;;3.25;0.20;;;6.10;99.90;;;;;;4988322;28;20038;-92
2021/01/21 07:17:00;;;;;;;2.08;0.40;;;6.10;99.90;;;;;;4956040;28;20046;-91
2021/01/21 07:19:39;;;;;;;3.70;0.20;;;6.10;99.90;;;;;;4971595;28;20030;-92
2021/01/21 07:22:22;;;;;;;2.72;0.10;;;5.90;99.90;;;;;;4968068;28;20045;-93
2021/01/21 07:24:55;;;;;;;2.72;0.20;;;5.90;99.90;;;;;;4951682;29;20058;-93
2021/01/21 07:27:22;;;;;;;3.35;0.17;;;5.80;99.90;;;;;;4952591;29;20027;-92
2021/01/21 07:29:49;;;;;;;4.25;0.10;;;5.70;99.90;;;;;;4952077;29;20038;-92
2021/01/21 07:32:25;;;;;;;3.17;0.20;;;5.70;99.90;;;;;;4952594;29;20046;-92
2021/01/21 07:34:51;;;;;;;5.00;0.30;;;5.60;99.90;;;;;;4946038;29;20074;-91
2021/01/21 07:37:27;;;;;;;2.65;0.10;;;5.60;99.90;;;;;;4949782;29;20031;-91
2021/01/21 07:40:08;;;;;;;4.70;0.22;;;5.60;99.90;;;;;;4936240;29;20062;-92
2021/01/21 07:42:36;;;;;;;8.05;0.30;;;5.50;99.90;;;;;;4953904;29;20023;-92
2021/01/21 07:45:21;;;;;;;7.10;0.40;;;5.60;99.90;;;;;;4951976;29;20054;-91
2021/01/21 07:47:50;;;;;;;3.88;0.40;;;5.50;99.90;;;;;;4956145;29;20039;-93
2021/01/21 07:50:19;;;;;;;7.78;0.85;;;5.70;99.90;;;;;;4951547;29;20039;-93
2021/01/21 07:52:49;;;;;;;8.48;0.32;;;5.60;99.90;;;;;;4951229;29;20147;-93
2021/01/21 07:55:28;;;;;;;4.72;0.30;;;5.60;99.90;;;;;;4967641;29;20027;-92
2021/01/21 07:58:12;;;;;;;1.73;0.10;;;5.50;99.90;;;;;;4949432;29;20030;-90
2021/01/21 08:00:38;;;;;;;3.90;0.28;;;5.50;99.90;;;;;;4935717;29;20038;-92
2021/01/21 08:03:04;;;;;;;5.40;0.25;;;5.60;99.90;;;;;;4946483;29;20031;-92
2021/01/21 08:05:32;;;;;;;5.03;0.35;;;5.60;99.90;;;;;;4948685;29;20039;-91
2021/01/21 08:07:57;;;;;;;2.60;0.28;;;5.50;99.90;;;;;;4948725;29;20027;-92
2021/01/21 08:10:24;;;;;;;8.40;0.40;;;5.50;99.90;;;;;;4951529;29;20106;-92
2021/01/21 08:12:54;;;;;;;3.60;0.73;;;5.40;99.90;;;;;;4953448;29;20031;-91
2021/01/21 08:15:20;;;;;;;;;;;5.30;99.90;;;;;;4951772;29;20054;-92
2021/01/21 08:17:50;;;;;;;2.72;0.35;;;5.30;99.90;;;;;;4938337;29;19937;-91
2021/01/21 08:20:17;;;;;;;3.90;0.47;;;5.40;99.90;;;;;;4942677;29;20031;-92
2021/01/21 08:23:08;;;;;;;5.45;0.88;;;5.40;99.90;;;;;;4952990;28;20430;-91
2021/01/21 08:25:48;;;;;;;6.07;0.22;;;5.50;99.90;;;;;;4955542;28;20034;-93
2021/01/21 08:28:19;;;;;;;11.65;1.75;;;5.50;99.90;;;;;;4967463;28;20027;-92
2021/01/21 08:30:46;;;;;;;5.28;0.30;;;5.50;99.90;;;;;;4970060;28;20038;-92
2021/01/21 08:33:17;;;;;;;3.78;0.20;;;5.40;99.90;;;;;;4968157;28;20074;-90
2021/01/21 08:35:55;;;;;;;2.25;0.40;;;5.40;99.90;;;;;;4953165;28;20035;-92
2021/01/21 08:38:24;;;;;;;5.20;0.20;;;5.40;99.90;;;;;;4969985;28;20031;-90
2021/01/21 08:40:55;;;;;;;3.65;0.20;;;5.50;99.90;;;;;;4952404;28;20364;-91
2021/01/21 08:43:22;;;;;;;6.80;0.30;;;5.50;99.90;;;;;;4960722;23;20048;-92
2021/01/21 08:45:48;;;;;;;1.88;0.25;;;5.70;99.90;;;;;;4962636;29;20036;-90
2021/01/21 08:48:28;;;;;;;5.78;0.30;;;5.60;99.90;;;;;;4944288;29;20383;-92
2021/01/21 08:50:54;;;;;;;8.67;0.37;;;5.70;99.90;;;;;;4947386;29;20032;-91
2021/01/21 08:53:30;;;;;;;9.30;0.28;;;5.70;99.90;;;;;;4949450;29;20051;-93
2021/01/21 08:55:57;;;;;;;5.45;0.70;;;5.80;99.90;;;;;;4931700;29;20114;-90
2021/01/21 08:58:31;;;;;;;5.63;0.30;;;6.00;99.90;;;;;;4946731;29;20036;-92
2021/01/21 09:01:11;;;;;;;4.13;0.30;;;6.20;99.90;;;;;;4947071;29;20031;-93
2021/01/21 09:03:47;;;;;;;6.82;0.40;;;6.30;99.90;;;;;;4931659;29;20438;-92
2021/01/21 09:06:19;;;;;;;6.05;0.40;;;6.40;99.90;;;;;;4931334;29;20043;-92
2021/01/21 09:08:56;;;;;;;6.03;0.30;;;6.50;99.90;;;;;;4933931;29;20063;-90
2021/01/21 09:11:34;;;;;;;9.57;0.40;;;6.50;99.90;;;;;;4938852;29;20040;-91
2021/01/21 09:14:01;;;;;;;5.70;0.30;;;6.50;99.90;;;;;;4930297;29;20046;-90
2021/01/21 09:16:43;;;;;;;7.72;0.50;;;6.50;99.90;;;;;;4932375;29;20400;-91
2021/01/21 09:19:09;;;;;;;4.20;0.30;;;6.40;99.90;;;;;;4961941;29;20127;-90
2021/01/21 09:21:38;;;;;;;8.63;0.35;;;6.50;99.90;;;;;;4930684;29;20027;-90
2021/01/21 09:24:13;;;;;;;3.85;0.20;;;6.40;99.90;;;;;;4929845;29;20032;-93
2021/01/21 09:26:38;;;;;;;4.78;0.30;;;6.40;99.90;;;;;;4926795;29;20036;-91
2021/01/21 09:29:04;;;;;;;5.40;0.30;;;6.40;99.90;;;;;;4930696;29;20083;-91
2021/01/21 09:31:33;;;;;;;4.20;0.30;;;6.40;99.90;;;;;;4932123;29;20027;-92
2021/01/21 09:33:59;;;;;;;8.60;0.68;;;6.40;99.90;;;;;;4930965;29;20046;-93
2021/01/21 09:36:27;;;;;;;8.75;0.50;;;6.30;99.90;;;;;;4945598;29;20035;-91
2021/01/21 09:38:53;;;;;;;4.57;0.30;;;6.40;99.90;;;;;;4944456;29;20031;-91
2021/01/21 09:41:39;;;;;;;4.95;0.40;;;6.50;99.90;;;;;;4929912;29;20031;-91
2021/01/21 09:44:05;;;;;;;10.15;0.82;;;6.60;99.90;;;;;;4887957;29;20056;-90
2021/01/21 09:46:31;;;;;;;6.45;0.30;;;6.70;99.90;;;;;;4887097;29;20116;-90
2021/01/21 09:48:56;;;;;;;5.47;0.45;;;6.80;99.90;;;;;;4870585;29;20104;-90
2021/01/21 09:51:22;;;;;;;6.63;0.30;;;6.80;99.90;;;;;;4866175;29;20177;-92
2021/01/21 09:53:48;;;;;;;5.93;0.40;;;6.60;99.90;;;;;;4869478;29;20025;-90
2021/01/21 09:56:13;;;;;;;4.97;0.30;;;6.60;99.90;;;;;;4866385;29;20577;-90
2021/01/21 09:58:41;;;;;;;7.75;0.50;;;6.70;99.90;;;;;;4852817;29;20067;-91
2021/01/21 10:01:07;;;;;;;6.65;0.40;;;6.80;99.90;;;;;;4871532;29;20052;-91
2021/01/21 10:03:32;;;;;;;5.32;0.50;;;6.90;99.90;;;;;;4871508;29;20267;-90
2021/01/21 10:05:58;;;;;;;7.60;0.45;;;7.10;99.90;;;;;;4869156;29;20068;-91
2021/01/21 10:08:24;;;;;;;5.18;0.50;;;7.20;99.90;;;;;;4873177;29;20041;-90
2021/01/21 10:10:49;;;;;;;3.70;0.20;;;7.20;99.90;;;;;;4867776;29;20021;-93
2021/01/21 10:13:15;;;;;;;4.68;0.30;;;7.30;99.90;;;;;;4871553;29;20045;-91
2021/01/21 10:15:41;;;;;;;7.28;0.30;;;7.30;99.90;;;;;;4876906;29;20045;-92
2021/01/21 10:18:07;;;;;;;3.60;0.30;;;7.20;99.90;;;;;;4863032;29;20037;-93
2021/01/21 10:20:32;;;;;;;3.72;0.30;;;7.20;99.90;;;;;;4889130;29;20055;-91
2021/01/21 10:22:58;;;;;;;3.80;0.40;;;7.10;99.90;;;;;;4954624;29;20076;-92
2021/01/21 10:25:24;;;;;;;6.75;0.55;;;7.40;99.90;;;;;;4936800;29;20051;-90
2021/01/21 10:27:50;;;;;;;3.05;0.20;;;7.60;99.90;;;;;;4939704;29;20062;-91
2021/01/21 10:30:16;;;;;;;8.95;0.30;;;7.50;99.90;;;;;;4936757;29;20038;-90
2021/01/21 10:32:41;;;;;;;4.97;0.25;;;7.50;99.90;;;;;;4934441;29;20027;-93
2021/01/21 10:35:08;;;;;;;5.60;0.30;;;7.50;99.90;;;;;;4939438;29;20043;-91
2021/01/21 10:37:33;;;;;;;4.13;0.20;;;7.50;99.90;;;;;;4952588;29;20032;-91
2021/01/21 10:39:59;;;;;;;6.68;0.22;;;7.40;99.90;;;;;;4933846;29;20047;-91
2021/01/21 10:45:15;;;;;;;2.30;0.20;;;7.40;99.90;;;;;;4926029;29;20087;-92
2021/01/21 10:47:44;;;;;;;3.95;0.20;;;7.30;99.90;;;;;;4913346;29;20061;-93
2021/01/21 10:50:11;;;;;;;4.55;0.20;;;7.20;99.90;;;;;;4930840;29;20044;-93
2021/01/21 10:52:36;;;;;;;6.18;0.30;;;7.30;99.90;;;;;;4914331;29;20044;-94
2021/01/21 10:55:02;;;;;;;7.10;0.30;;;7.40;99.90;;;;;;4914368;29;20032;-92
2021/01/21 10:57:31;;;;;;;2.85;0.20;;;7.50;99.90;;;;;;4899095;29;20059;-93
2021/01/21 10:59:57;;;;;;;1.92;0.30;;;7.50;99.90;;;;;;4911869;29;20036;-94
2021/01/21 11:02:26;;;;;;;6.80;0.50;;;7.40;99.90;;;;;;4915252;29;20042;-94
2021/01/21 11:04:54;;;;;;;7.18;1.15;;;7.40;99.90;;;;;;4901614;29;20040;-94
2021/01/21 11:07:20;;;;;;;7.95;0.30;;;7.50;99.90;;;;;;4899506;29;20027;-92
2021/01/21 11:09:45;;;;;;;4.20;0.35;;;7.50;99.90;;;;;;4911798;29;20059;-96
2021/01/21 11:12:16;;;;;;;3.10;0.47;;;7.50;99.90;;;;;;4898838;29;20152;-93
2021/01/21 11:14:42;;;;;;;4.60;0.32;;;7.60;99.90;;;;;;4914325;29;20397;-94
2021/01/21 11:17:09;;;;;;;7.32;0.70;;;7.60;99.90;;;;;;5002173;23;20074;-91
2021/01/21 11:19:34;;;;;;;3.10;0.20;;;7.70;99.90;;;;;;4973472;28;20066;-95
2021/01/21 11:22:00;;;;;;;2.03;0.40;;;7.60;99.90;;;;;;4970962;28;20032;-92
2021/01/21 11:24:26;;;;;;;6.53;0.40;;;7.60;99.90;;;;;;4985355;28;20102;-92
2021/01/21 11:26:52;;;;;;;6.10;0.38;;;7.60;99.90;;;;;;4952660;28;20038;-92
2021/01/21 11:29:17;;;;;;;5.38;0.63;;;7.60;99.90;;;;;;4981016;28;20047;-94
2021/01/21 11:31:43;;;;;;;2.95;0.20;;;7.70;99.90;;;;;;4986344;28;20043;-93
2021/01/21 11:34:08;;;;;;;2.80;0.30;;;7.80;99.90;;;;;;4984222;28;20050;-94
2021/01/21 11:36:37;;;;;;;4.70;0.47;;;7.80;99.90;;;;;;4966010;29;20028;-95
2021/01/21 11:39:03;;;;;;;5.38;0.40;;;7.90;99.90;;;;;;4968388;29;20097;-93
2021/01/21 11:41:49;;;;;;;4.95;0.35;;;7.80;99.90;;;;;;4968334;28;20033;-94
2021/01/21 11:44:15;;;;;;;3.50;0.30;;;7.90;99.90;;;;;;4930308;29;20055;-93
2021/01/21 11:46:40;;;;;;;4.10;0.30;;;7.90;99.90;;;;;;4936903;29;20043;-95
2021/01/21 11:49:06;;;;;;;3.10;0.30;;;8.10;99.90;;;;;;4950954;29;20043;-95
2021/01/21 11:51:32;;;;;;;2.40;0.30;;;8.10;99.90;;;;;;4945191;29;20035;-93
2021/01/21 11:53:58;;;;;;;4.82;0.30;;;8.10;99.90;;;;;;4893482;29;20043;-93
2021/01/21 11:56:23;;;;;;;4.45;0.40;;;8.20;99.90;;;;;;4940645;28;20039;-95
2021/01/21 11:58:49;;;;;;;2.35;0.28;;;8.10;99.90;;;;;;4937968;28;20063;-94
2021/01/21 12:01:15;;;;;;;2.60;0.25;;;8.00;99.90;;;;;;4952363;29;20067;-94
2021/01/21 12:03:45;;;;;;;5.05;0.30;;;7.80;99.90;;;;;;4936555;29;20126;-93
2021/01/21 12:06:11;;;;;;;4.15;0.20;;;7.70;99.90;;;;;;4935563;29;20039;-94
2021/01/21 12:08:38;;;;;;;4.05;0.28;;;7.80;99.90;;;;;;4936619;29;20128;-95
2021/01/21 12:11:06;;;;;;;6.70;0.20;;;7.80;99.90;;;;;;4950976;29;20035;-87
2021/01/21 12:13:32;;;;;;;4.65;0.20;;;7.70;99.90;;;;;;4941679;29;20114;-95
2021/01/21 12:15:59;;;;;;;2.53;0.30;;;7.80;99.90;;;;;;4959290;29;20043;-96
2021/01/21 12:18:26;;;;;;;2.80;0.30;;;7.70;99.90;;;;;;4916660;29;20056;-94
2021/01/21 12:20:52;;;;;;;3.63;0.28;;;7.70;99.90;;;;;;4933452;29;20040;-94
2021/01/21 12:23:17;;;;;;;2.35;0.28;;;7.60;99.90;;;;;;4949746;29;20043;-94
2021/01/21 12:25:43;;;;;;;3.47;0.35;;;7.70;99.90;;;;;;4963898;29;20031;-90
2021/01/21 12:28:09;;;;;;;4.15;0.30;;;7.70;99.90;;;;;;4943220;29;20032;-91
2021/01/21 12:30:34;;;;;;;4.35;0.30;;;7.80;99.90;;;;;;4930524;29;20035;-95
2021/01/21 12:33:00;;;;;;;8.68;0.40;;;7.80;99.90;;;;;;4948249;29;20051;-94
2021/01/21 12:35:26;;;;;;;5.75;0.30;;;7.80;99.90;;;;;;4950004;28;20032;-93
2021/01/21 12:37:51;;;;;;;3.55;0.30;;;7.80;99.90;;;;;;4963886;29;20023;-96
2021/01/21 12:40:17;;;;;;;4.75;0.30;;;7.80;99.90;;;;;;4980050;28;20023;-91
2021/01/21 12:42:43;;;;;;;3.05;0.40;;;7.80;99.90;;;;;;4942125;29;20031;-94
2021/01/21 12:45:10;;;;;;;6.18;0.30;;;7.70;99.90;;;;;;4946546;29;20079;-96
2021/01/21 12:47:35;;;;;;;3.60;0.30;;;7.60;99.90;;;;;;4947754;29;20038;-95
2021/01/21 12:50:01;;;;;;;2.97;0.28;;;7.60;99.90;;;;;;4947343;29;20099;-96
2021/01/21 12:52:27;;;;;;;8.05;0.40;;;7.60;99.90;;;;;;4951138;29;20035;-93
2021/01/21 12:54:54;;;;;;;3.33;0.32;;;7.60;99.90;;;;;;4944112;28;20071;-93
2021/01/21 12:57:19;;;;;;;4.70;0.20;;;7.60;99.90;;;;;;4961952;29;20028;-94
2021/01/21 12:59:46;;;;;;;2.20;0.20;;;7.60;99.90;;;;;;4962965;29;20050;-94
2021/01/21 13:02:13;;;;;;;3.72;0.52;;;7.70;99.90;;;;;;4952230;29;20032;-92
2021/01/21 13:04:38;;;;;;;3.03;0.30;;;7.90;99.90;;;;;;4962950;29;20044;-94
2021/01/21 13:07:06;;;;;;;2.42;0.30;;;7.90;99.90;;;;;;4958493;29;20027;-94
2021/01/21 13:09:32;;;;;;;3.28;0.30;;;8.00;99.90;;;;;;4962613;29;20028;-95
2021/01/21 13:11:58;;;;;;;4.05;0.40;;;7.90;99.90;;;;;;4963249;29;20035;-93
2021/01/21 13:14:24;;;;;;;3.78;0.22;;;8.00;99.90;;;;;;4947819;29;20036;-95
2021/01/21 13:16:49;;;;;;;5.47;0.30;;;8.00;99.90;;;;;;4935502;28;20039;-96